sensor_id;sensor_type;location;lat;lon;timestamp;temperature;humidity
21338;DHT22;10827;50.878;4.382;2022-09-30T00:03:23;11.50;99.90
21338;DHT22;10827;50.878;4.382;2022-09-30T00:06:00;12.10;99.90
21338;DHT22;10827;50.878;4.382;2022-09-30T00:08:26;12.00;99.90
21338;DHT22;10827;50.878;4.382;2022-09-30T00:11:25;11.50;99.90
21338;DHT22;10827;50.878;4.382;2022-09-30T00:13:53;11.40;99.90
21338;DHT22;10827;50.878;4.382;2022-09-30T00:16:21;12.00;99.90
21338;DHT22;10827;50.878;4.382;2022-09-30T00:18:48;12.00;99.90
21338;DHT22;10827;50.878;4.382;2022-09-30T00:21:15;11.70;99.90
21338;DHT22;10827;50.878;4.382;2022-09-30T00:23:42;12.10;99.90
21338;DHT22;10827;50.878;4.382;2022-09-30T00:26:12;11.80;99.90
21338;DHT22;10827;50.878;4.382;2022-09-30T00:28:39;11.70;99.90
21338;DHT22;10827;50.878;4.382;2022-09-30T00:31:06;12.10;99.90
21338;DHT22;10827;50.878;4.382;2022-09-30T00:33:33;12.20;99.90
21338;DHT22;10827;50.878;4.382;2022-09-30T00:36:00;11.70;99.90
21338;DHT22;10827;50.878;4.382;2022-09-30T00:43:37;10.70;99.90
21338;DHT22;10827;50.878;4.382;2022-09-30T00:46:05;8.40;99.90
21338;DHT22;10827;50.878;4.382;2022-09-30T00:48:37;10.70;99.90
21338;DHT22;10827;50.878;4.382;2022-09-30T00:51:05;10.80;99.90
21338;DHT22;10827;50.878;4.382;2022-09-30T00:53:46;10.80;99.90
21338;DHT22;10827;50.878;4.382;2022-09-30T00:56:22;11.30;99.90
21338;DHT22;10827;50.878;4.382;2022-09-30T00:59:07;11.60;99.90
21338;DHT22;10827;50.878;4.382;2022-09-30T01:01:37;11.80;99.90
21338;DHT22;10827;50.878;4.382;2022-09-30T01:04:15;11.50;99.90
21338;DHT22;10827;50.878;4.382;2022-09-30T01:06:42;11.20;99.90
21338;DHT22;10827;50.878;4.382;2022-09-30T01:09:09;11.50;99.90
21338;DHT22;10827;50.878;4.382;2022-09-30T01:14:08;11.80;99.90
21338;DHT22;10827;50.878;4.382;2022-09-30T01:30:34;11.20;99.90
21338;DHT22;10827;50.878;4.382;2022-09-30T01:34:02;10.90;99.90
21338;DHT22;10827;50.878;4.382;2022-09-30T01:36:12;10.70;99.90
21338;DHT22;10827;50.878;4.382;2022-09-30T01:39:11;11.20;99.90
21338;DHT22;10827;50.878;4.382;2022-09-30T01:45:26;10.30;99.90
21338;DHT22;10827;50.878;4.382;2022-09-30T01:48:06;10.30;99.90
21338;DHT22;10827;50.878;4.382;2022-09-30T01:53:17;10.40;99.90
21338;DHT22;10827;50.878;4.382;2022-09-30T02:01:12;10.30;99.90
21338;DHT22;10827;50.878;4.382;2022-09-30T02:03:46;10.20;99.90
21338;DHT22;10827;50.878;4.382;2022-09-30T02:06:18;10.20;99.90
21338;DHT22;10827;50.878;4.382;2022-09-30T02:09:14;10.10;99.90
21338;DHT22;10827;50.878;4.382;2022-09-30T02:11:40;10.10;99.90
21338;DHT22;10827;50.878;4.382;2022-09-30T02:16:58;10.10;99.90
21338;DHT22;10827;50.878;4.382;2022-09-30T02:22:21;10.80;99.90
21338;DHT22;10827;50.878;4.382;2022-09-30T02:24:54;10.80;99.90
21338;DHT22;10827;50.878;4.382;2022-09-30T02:27:25;10.50;99.90
21338;DHT22;10827;50.878;4.382;2022-09-30T02:29:56;10.40;99.90
21338;DHT22;10827;50.878;4.382;2022-09-30T02:32:32;10.60;99.90
21338;DHT22;10827;50.878;4.382;2022-09-30T02:35:06;10.90;99.90
21338;DHT22;10827;50.878;4.382;2022-09-30T02:37:35;10.90;99.90
21338;DHT22;10827;50.878;4.382;2022-09-30T02:40:26;10.70;99.90
21338;DHT22;10827;50.878;4.382;2022-09-30T02:42:52;10.60;99.90
21338;DHT22;10827;50.878;4.382;2022-09-30T02:45:20;10.80;99.90
21338;DHT22;10827;50.878;4.382;2022-09-30T02:53:26;10.80;99.90
21338;DHT22;10827;50.878;4.382;2022-09-30T03:06:10;11.20;99.90
21338;DHT22;10827;50.878;4.382;2022-09-30T03:08:37;10.90;99.90
21338;DHT22;10827;50.878;4.382;2022-09-30T03:11:03;11.00;99.90
21338;DHT22;10827;50.878;4.382;2022-09-30T03:40:29;9.80;99.90
21338;DHT22;10827;50.878;4.382;2022-09-30T03:43:32;9.70;99.90
21338;DHT22;10827;50.878;4.382;2022-09-30T03:48:43;9.50;99.90
21338;DHT22;10827;50.878;4.382;2022-09-30T03:51:11;9.70;99.90
21338;DHT22;10827;50.878;4.382;2022-09-30T03:53:39;9.60;99.90
21338;DHT22;10827;50.878;4.382;2022-09-30T03:56:06;9.70;99.90
21338;DHT22;10827;50.878;4.382;2022-09-30T03:58:32;9.70;99.90
21338;DHT22;10827;50.878;4.382;2022-09-30T04:00:59;9.80;99.90
21338;DHT22;10827;50.878;4.382;2022-09-30T04:03:25;9.80;99.90
21338;DHT22;10827;50.878;4.382;2022-09-30T04:05:52;9.60;99.90
21338;DHT22;10827;50.878;4.382;2022-09-30T04:08:18;9.60;99.90
21338;DHT22;10827;50.878;4.382;2022-09-30T04:10:44;9.40;99.90
21338;DHT22;10827;50.878;4.382;2022-09-30T04:13:11;9.50;99.90
21338;DHT22;10827;50.878;4.382;2022-09-30T04:15:37;9.30;99.90
21338;DHT22;10827;50.878;4.382;2022-09-30T04:18:05;9.30;99.90
21338;DHT22;10827;50.878;4.382;2022-09-30T04:20:31;9.40;99.90
21338;DHT22;10827;50.878;4.382;2022-09-30T04:22:58;9.40;99.90
21338;DHT22;10827;50.878;4.382;2022-09-30T04:25:25;9.20;99.90
21338;DHT22;10827;50.878;4.382;2022-09-30T04:35:11;9.50;99.90
21338;DHT22;10827;50.878;4.382;2022-09-30T04:37:43;9.50;99.90
21338;DHT22;10827;50.878;4.382;2022-09-30T04:42:36;9.30;99.90
21338;DHT22;10827;50.878;4.382;2022-09-30T04:45:02;9.00;99.90
21338;DHT22;10827;50.878;4.382;2022-09-30T04:54:47;9.30;99.90
21338;DHT22;10827;50.878;4.382;2022-09-30T04:57:13;9.10;99.90
21338;DHT22;10827;50.878;4.382;2022-09-30T04:59:39;9.20;99.90
21338;DHT22;10827;50.878;4.382;2022-09-30T05:04:31;9.50;99.90
21338;DHT22;10827;50.878;4.382;2022-09-30T05:06:59;9.30;99.90
21338;DHT22;10827;50.878;4.382;2022-09-30T05:09:30;9.20;99.90
21338;DHT22;10827;50.878;4.382;2022-09-30T05:14:22;9.30;99.90
21338;DHT22;10827;50.878;4.382;2022-09-30T05:16:48;9.20;99.90
21338;DHT22;10827;50.878;4.382;2022-09-30T05:38:49;8.90;99.90
21338;DHT22;10827;50.878;4.382;2022-09-30T05:46:15;9.00;99.90
21338;DHT22;10827;50.878;4.382;2022-09-30T05:53:35;9.10;99.90
21338;DHT22;10827;50.878;4.382;2022-09-30T05:56:05;9.00;99.90
21338;DHT22;10827;50.878;4.382;2022-09-30T06:05:54;8.90;99.90
21338;DHT22;10827;50.878;4.382;2022-09-30T06:10:48;9.10;99.90
21338;DHT22;10827;50.878;4.382;2022-09-30T06:15:42;9.10;99.90
21338;DHT22;10827;50.878;4.382;2022-09-30T06:18:08;9.00;99.90
21338;DHT22;10827;50.878;4.382;2022-09-30T06:20:35;9.00;99.90
21338;DHT22;10827;50.878;4.382;2022-09-30T06:23:02;8.80;99.90
21338;DHT22;10827;50.878;4.382;2022-09-30T06:25:29;8.80;99.90
21338;DHT22;10827;50.878;4.382;2022-09-30T06:40:07;8.90;99.90
21338;DHT22;10827;50.878;4.382;2022-09-30T06:44:59;9.00;99.90
21338;DHT22;10827;50.878;4.382;2022-09-30T06:47:25;9.10;99.90
21338;DHT22;10827;50.878;4.382;2022-09-30T06:49:52;9.30;99.90
21338;DHT22;10827;50.878;4.382;2022-09-30T06:57:15;9.30;99.90
21338;DHT22;10827;50.878;4.382;2022-09-30T07:02:10;9.20;99.90
21338;DHT22;10827;50.878;4.382;2022-09-30T07:04:36;9.40;99.90
21338;DHT22;10827;50.878;4.382;2022-09-30T07:09:27;9.50;99.90
21338;DHT22;10827;50.878;4.382;2022-09-30T07:11:53;9.60;99.90
21338;DHT22;10827;50.878;4.382;2022-09-30T07:14:19;9.50;99.90
21338;DHT22;10827;50.878;4.382;2022-09-30T07:16:49;9.60;99.90
21338;DHT22;10827;50.878;4.382;2022-09-30T07:19:17;9.60;99.90
21338;DHT22;10827;50.878;4.382;2022-09-30T07:29:05;9.90;99.90
21338;DHT22;10827;50.878;4.382;2022-09-30T07:31:32;9.90;99.90
21338;DHT22;10827;50.878;4.382;2022-09-30T07:36:25;10.00;99.90
21338;DHT22;10827;50.878;4.382;2022-09-30T07:38:55;10.00;99.90
21338;DHT22;10827;50.878;4.382;2022-09-30T07:41:24;10.10;99.90
21338;DHT22;10827;50.878;4.382;2022-09-30T07:43:52;11.20;99.90
21338;DHT22;10827;50.878;4.382;2022-09-30T07:46:23;10.20;99.90
21338;DHT22;10827;50.878;4.382;2022-09-30T07:48:51;10.30;99.90
21338;DHT22;10827;50.878;4.382;2022-09-30T07:51:36;10.30;99.90
21338;DHT22;10827;50.878;4.382;2022-09-30T07:54:09;10.20;99.90
21338;DHT22;10827;50.878;4.382;2022-09-30T07:56:36;9.80;99.90
21338;DHT22;10827;50.878;4.382;2022-09-30T08:01:29;10.30;99.90
21338;DHT22;10827;50.878;4.382;2022-09-30T08:04:02;10.30;99.90
21338;DHT22;10827;50.878;4.382;2022-09-30T08:06:30;10.40;99.90
21338;DHT22;10827;50.878;4.382;2022-09-30T08:08:57;10.60;99.90
21338;DHT22;10827;50.878;4.382;2022-09-30T08:11:24;10.70;99.90
21338;DHT22;10827;50.878;4.382;2022-09-30T08:13:54;10.50;99.90
21338;DHT22;10827;50.878;4.382;2022-09-30T08:16:21;11.00;99.90
21338;DHT22;10827;50.878;4.382;2022-09-30T08:21:13;11.00;99.90
21338;DHT22;10827;50.878;4.382;2022-09-30T08:26:10;11.20;99.90
21338;DHT22;10827;50.878;4.382;2022-09-30T08:31:08;11.40;99.90
21338;DHT22;10827;50.878;4.382;2022-09-30T08:36:05;11.80;99.90
21338;DHT22;10827;50.878;4.382;2022-09-30T08:38:31;11.60;99.90
21338;DHT22;10827;50.878;4.382;2022-09-30T08:43:44;11.70;99.90
21338;DHT22;10827;50.878;4.382;2022-09-30T08:49:20;11.90;99.90
21338;DHT22;10827;50.878;4.382;2022-09-30T08:51:51;12.20;99.90
21338;DHT22;10827;50.878;4.382;2022-09-30T08:54:22;12.60;99.90
21338;DHT22;10827;50.878;4.382;2022-09-30T08:56:48;13.50;93.90
21338;DHT22;10827;50.878;4.382;2022-09-30T09:02:31;13.30;92.30
21338;DHT22;10827;50.878;4.382;2022-09-30T09:05:02;13.50;73.10
21338;DHT22;10827;50.878;4.382;2022-09-30T09:07:54;13.50;71.70
21338;DHT22;10827;50.878;4.382;2022-09-30T09:10:27;13.70;79.60
21338;DHT22;10827;50.878;4.382;2022-09-30T09:23:43;13.30;94.60
21338;DHT22;10827;50.878;4.382;2022-09-30T09:26:13;13.20;94.00
21338;DHT22;10827;50.878;4.382;2022-09-30T09:31:12;13.50;73.20
21338;DHT22;10827;50.878;4.382;2022-09-30T09:33:39;13.80;84.70
21338;DHT22;10827;50.878;4.382;2022-09-30T09:38:57;14.00;40.80
21338;DHT22;10827;50.878;4.382;2022-09-30T09:44:51;14.30;51.30
21338;DHT22;10827;50.878;4.382;2022-09-30T09:47:19;14.10;37.00
21338;DHT22;10827;50.878;4.382;2022-09-30T09:49:51;14.40;45.60
21338;DHT22;10827;50.878;4.382;2022-09-30T09:55:04;14.50;36.70
21338;DHT22;10827;50.878;4.382;2022-09-30T09:57:30;14.50;39.30
21338;DHT22;10827;50.878;4.382;2022-09-30T10:00:00;14.60;17.50
21338;DHT22;10827;50.878;4.382;2022-09-30T10:03:02;14.70;29.60
21338;DHT22;10827;50.878;4.382;2022-09-30T10:05:30;14.70;23.20
21338;DHT22;10827;50.878;4.382;2022-09-30T10:08:19;14.60;13.90
21338;DHT22;10827;50.878;4.382;2022-09-30T10:14:02;14.50;12.40
21338;DHT22;10827;50.878;4.382;2022-09-30T10:16:04;14.40;12.80
21338;DHT22;10827;50.878;4.382;2022-09-30T10:18:36;14.70;23.50
21338;DHT22;10827;50.878;4.382;2022-09-30T10:21:06;14.80;13.00
21338;DHT22;10827;50.878;4.382;2022-09-30T10:23:44;14.70;10.30
21338;DHT22;10827;50.878;4.382;2022-09-30T10:28:51;14.80;1.00
21338;DHT22;10827;50.878;4.382;2022-09-30T10:31:27;15.10;1.00
21338;DHT22;10827;50.878;4.382;2022-09-30T10:36:44;15.10;3.90
21338;DHT22;10827;50.878;4.382;2022-09-30T10:39:34;15.10;1.00
21338;DHT22;10827;50.878;4.382;2022-09-30T10:42:05;15.10;4.10
21338;DHT22;10827;50.878;4.382;2022-09-30T10:44:37;15.30;1.00
21338;DHT22;10827;50.878;4.382;2022-09-30T10:47:06;15.10;1.00
21338;DHT22;10827;50.878;4.382;2022-09-30T10:49:42;15.10;1.00
21338;DHT22;10827;50.878;4.382;2022-09-30T10:52:22;15.10;1.00
21338;DHT22;10827;50.878;4.382;2022-09-30T10:54:56;15.10;1.00
21338;DHT22;10827;50.878;4.382;2022-09-30T10:57:28;15.10;1.00
21338;DHT22;10827;50.878;4.382;2022-09-30T11:07:37;15.30;1.00
21338;DHT22;10827;50.878;4.382;2022-09-30T11:12:55;15.50;1.00
21338;DHT22;10827;50.878;4.382;2022-09-30T11:15:49;15.60;1.00
21338;DHT22;10827;50.878;4.382;2022-09-30T11:18:28;15.80;1.00
21338;DHT22;10827;50.878;4.382;2022-09-30T11:21:00;16.00;1.00
21338;DHT22;10827;50.878;4.382;2022-09-30T11:23:59;15.90;1.00
21338;DHT22;10827;50.878;4.382;2022-09-30T11:32:27;16.00;1.00
21338;DHT22;10827;50.878;4.382;2022-09-30T11:59:51;16.90;1.00
21338;DHT22;10827;50.878;4.382;2022-09-30T12:04:56;16.40;1.00
21338;DHT22;10827;50.878;4.382;2022-09-30T12:08:02;16.50;1.00
21338;DHT22;10827;50.878;4.382;2022-09-30T12:11:05;16.70;1.00
21338;DHT22;10827;50.878;4.382;2022-09-30T12:13:24;16.80;1.00
21338;DHT22;10827;50.878;4.382;2022-09-30T12:15:53;16.50;1.00
21338;DHT22;10827;50.878;4.382;2022-09-30T12:18:29;16.80;1.00
21338;DHT22;10827;50.878;4.382;2022-09-30T12:20:59;17.20;1.00
21338;DHT22;10827;50.878;4.382;2022-09-30T12:23:32;17.30;1.00
21338;DHT22;10827;50.878;4.382;2022-09-30T12:26:01;17.50;1.00
21338;DHT22;10827;50.878;4.382;2022-09-30T12:28:48;16.90;1.00
21338;DHT22;10827;50.878;4.382;2022-09-30T12:37:38;16.40;1.00
21338;DHT22;10827;50.878;4.382;2022-09-30T12:40:45;16.80;1.00
21338;DHT22;10827;50.878;4.382;2022-09-30T12:48:42;17.10;1.00
21338;DHT22;10827;50.878;4.382;2022-09-30T12:51:17;17.00;1.00
21338;DHT22;10827;50.878;4.382;2022-09-30T12:53:50;16.70;1.00
21338;DHT22;10827;50.878;4.382;2022-09-30T12:56:17;17.00;1.00
21338;DHT22;10827;50.878;4.382;2022-09-30T12:58:49;17.00;1.00
21338;DHT22;10827;50.878;4.382;2022-09-30T13:06:14;17.60;1.00
21338;DHT22;10827;50.878;4.382;2022-09-30T13:11:41;17.40;1.00
21338;DHT22;10827;50.878;4.382;2022-09-30T13:16:59;17.30;1.00
21338;DHT22;10827;50.878;4.382;2022-09-30T13:19:45;17.20;1.00
21338;DHT22;10827;50.878;4.382;2022-09-30T13:30:01;17.00;1.00
21338;DHT22;10827;50.878;4.382;2022-09-30T13:32:36;17.10;1.00
21338;DHT22;10827;50.878;4.382;2022-09-30T13:38:18;17.40;1.00
21338;DHT22;10827;50.878;4.382;2022-09-30T13:46:50;17.30;1.00
21338;DHT22;10827;50.878;4.382;2022-09-30T13:52:30;17.20;1.00
21338;DHT22;10827;50.878;4.382;2022-09-30T13:54:59;17.50;1.00
21338;DHT22;10827;50.878;4.382;2022-09-30T13:57:38;17.50;1.00
21338;DHT22;10827;50.878;4.382;2022-09-30T14:00:15;17.60;1.00
21338;DHT22;10827;50.878;4.382;2022-09-30T14:03:27;17.80;1.00
21338;DHT22;10827;50.878;4.382;2022-09-30T14:05:53;17.60;1.00
21338;DHT22;10827;50.878;4.382;2022-09-30T14:09:25;17.40;1.00
21338;DHT22;10827;50.878;4.382;2022-09-30T14:20:07;18.20;1.00
21338;DHT22;10827;50.878;4.382;2022-09-30T14:22:36;18.20;1.00
21338;DHT22;10827;50.878;4.382;2022-09-30T14:25:03;18.40;1.00
21338;DHT22;10827;50.878;4.382;2022-09-30T14:32:52;18.00;17.10
21338;DHT22;10827;50.878;4.382;2022-09-30T14:35:20;18.40;99.90
21338;DHT22;10827;50.878;4.382;2022-09-30T14:40:32;18.70;99.90
21338;DHT22;10827;50.878;4.382;2022-09-30T14:43:04;18.30;1.00
21338;DHT22;10827;50.878;4.382;2022-09-30T14:45:35;18.50;1.00
21338;DHT22;10827;50.878;4.382;2022-09-30T14:48:07;18.40;99.90
21338;DHT22;10827;50.878;4.382;2022-09-30T14:50:45;18.70;1.00
21338;DHT22;10827;50.878;4.382;2022-09-30T14:53:29;19.30;1.00
21338;DHT22;10827;50.878;4.382;2022-09-30T14:55:56;19.60;99.90
21338;DHT22;10827;50.878;4.382;2022-09-30T14:58:37;20.00;1.00
21338;DHT22;10827;50.878;4.382;2022-09-30T15:01:16;19.70;72.00
21338;DHT22;10827;50.878;4.382;2022-09-30T15:03:53;19.90;1.00
21338;DHT22;10827;50.878;4.382;2022-09-30T15:06:32;19.80;49.80
21338;DHT22;10827;50.878;4.382;2022-09-30T15:09:05;19.30;99.90
21338;DHT22;10827;50.878;4.382;2022-09-30T15:11:32;19.30;1.00
21338;DHT22;10827;50.878;4.382;2022-09-30T15:16:51;18.20;1.00
21338;DHT22;10827;50.878;4.382;2022-09-30T15:19:21;17.80;1.00
21338;DHT22;10827;50.878;4.382;2022-09-30T15:21:52;17.50;1.00
21338;DHT22;10827;50.878;4.382;2022-09-30T15:24:20;17.70;1.00
21338;DHT22;10827;50.878;4.382;2022-09-30T15:26:47;17.90;1.00
21338;DHT22;10827;50.878;4.382;2022-09-30T15:29:15;18.10;1.00
21338;DHT22;10827;50.878;4.382;2022-09-30T15:31:46;18.20;1.00
21338;DHT22;10827;50.878;4.382;2022-09-30T15:34:18;18.40;99.90
21338;DHT22;10827;50.878;4.382;2022-09-30T15:36:55;18.30;1.00
21338;DHT22;10827;50.878;4.382;2022-09-30T15:39:27;18.50;99.90
21338;DHT22;10827;50.878;4.382;2022-09-30T15:42:13;18.40;1.00
21338;DHT22;10827;50.878;4.382;2022-09-30T15:49:47;18.40;1.00
21338;DHT22;10827;50.878;4.382;2022-09-30T15:52:27;18.10;1.00
21338;DHT22;10827;50.878;4.382;2022-09-30T15:54:54;17.90;99.90
21338;DHT22;10827;50.878;4.382;2022-09-30T15:57:46;17.90;99.90
21338;DHT22;10827;50.878;4.382;2022-09-30T16:05:43;17.50;99.90
21338;DHT22;10827;50.878;4.382;2022-09-30T16:08:09;17.70;1.00
21338;DHT22;10827;50.878;4.382;2022-09-30T16:13:07;17.70;1.00
21338;DHT22;10827;50.878;4.382;2022-09-30T16:15:38;17.50;1.00
21338;DHT22;10827;50.878;4.382;2022-09-30T16:18:05;17.40;1.00
21338;DHT22;10827;50.878;4.382;2022-09-30T16:20:59;17.50;1.00
21338;DHT22;10827;50.878;4.382;2022-09-30T16:23:27;17.40;99.90
21338;DHT22;10827;50.878;4.382;2022-09-30T16:26:19;17.50;18.60
21338;DHT22;10827;50.878;4.382;2022-09-30T16:28:51;17.30;99.90
21338;DHT22;10827;50.878;4.382;2022-09-30T16:33:44;17.50;99.90
21338;DHT22;10827;50.878;4.382;2022-09-30T16:36:11;17.30;99.90
21338;DHT22;10827;50.878;4.382;2022-09-30T16:38:39;17.30;99.90
21338;DHT22;10827;50.878;4.382;2022-09-30T16:41:05;17.40;1.00
21338;DHT22;10827;50.878;4.382;2022-09-30T16:43:31;19.50;1.00
21338;DHT22;10827;50.878;4.382;2022-09-30T16:45:57;17.30;1.00
21338;DHT22;10827;50.878;4.382;2022-09-30T16:48:25;17.00;1.00
21338;DHT22;10827;50.878;4.382;2022-09-30T16:53:29;16.90;1.00
21338;DHT22;10827;50.878;4.382;2022-09-30T16:58:21;17.00;1.00
21338;DHT22;10827;50.878;4.382;2022-09-30T17:00:47;17.10;1.00
21338;DHT22;10827;50.878;4.382;2022-09-30T17:03:15;17.00;1.00
21338;DHT22;10827;50.878;4.382;2022-09-30T17:05:42;16.90;1.00
21338;DHT22;10827;50.878;4.382;2022-09-30T17:08:11;16.80;1.00
21338;DHT22;10827;50.878;4.382;2022-09-30T17:10:44;16.70;1.00
21338;DHT22;10827;50.878;4.382;2022-09-30T17:13:12;16.50;1.00
21338;DHT22;10827;50.878;4.382;2022-09-30T17:15:41;16.70;1.00
21338;DHT22;10827;50.878;4.382;2022-09-30T17:18:08;16.60;1.00
21338;DHT22;10827;50.878;4.382;2022-09-30T17:20:36;16.60;1.00
21338;DHT22;10827;50.878;4.382;2022-09-30T17:25:28;16.30;1.00
21338;DHT22;10827;50.878;4.382;2022-09-30T17:27:54;16.20;1.00
21338;DHT22;10827;50.878;4.382;2022-09-30T17:32:46;16.40;1.00
21338;DHT22;10827;50.878;4.382;2022-09-30T17:37:39;16.40;1.00
21338;DHT22;10827;50.878;4.382;2022-09-30T17:40:05;16.20;1.00
21338;DHT22;10827;50.878;4.382;2022-09-30T17:42:52;17.10;1.00
21338;DHT22;10827;50.878;4.382;2022-09-30T17:45:40;16.30;1.00
21338;DHT22;10827;50.878;4.382;2022-09-30T17:48:07;16.20;1.00
21338;DHT22;10827;50.878;4.382;2022-09-30T17:50:35;16.10;1.00
21338;DHT22;10827;50.878;4.382;2022-09-30T17:53:02;16.20;1.00
21338;DHT22;10827;50.878;4.382;2022-09-30T17:55:28;15.90;1.00
21338;DHT22;10827;50.878;4.382;2022-09-30T17:57:55;16.50;1.00
21338;DHT22;10827;50.878;4.382;2022-09-30T18:00:21;18.60;1.00
21338;DHT22;10827;50.878;4.382;2022-09-30T18:05:13;16.10;1.00
21338;DHT22;10827;50.878;4.382;2022-09-30T18:07:40;16.00;1.00
21338;DHT22;10827;50.878;4.382;2022-09-30T18:10:06;15.80;1.00
21338;DHT22;10827;50.878;4.382;2022-09-30T18:12:32;16.10;1.00
21338;DHT22;10827;50.878;4.382;2022-09-30T18:14:59;15.90;1.00
21338;DHT22;10827;50.878;4.382;2022-09-30T18:17:26;15.90;1.00
21338;DHT22;10827;50.878;4.382;2022-09-30T18:19:52;16.00;1.00
21338;DHT22;10827;50.878;4.382;2022-09-30T18:22:17;16.20;1.00
21338;DHT22;10827;50.878;4.382;2022-09-30T18:24:44;16.20;1.00
21338;DHT22;10827;50.878;4.382;2022-09-30T18:27:28;16.10;1.00
21338;DHT22;10827;50.878;4.382;2022-09-30T18:30:02;16.00;1.00
21338;DHT22;10827;50.878;4.382;2022-09-30T18:32:29;16.10;1.00
21338;DHT22;10827;50.878;4.382;2022-09-30T18:34:56;16.30;1.00
21338;DHT22;10827;50.878;4.382;2022-09-30T18:37:22;16.00;1.00
21338;DHT22;10827;50.878;4.382;2022-09-30T18:39:48;16.00;1.00
21338;DHT22;10827;50.878;4.382;2022-09-30T18:47:08;16.10;1.00
21338;DHT22;10827;50.878;4.382;2022-09-30T18:49:35;15.90;1.00
21338;DHT22;10827;50.878;4.382;2022-09-30T18:52:01;16.00;1.00
21338;DHT22;10827;50.878;4.382;2022-09-30T18:54:29;16.00;1.00
21338;DHT22;10827;50.878;4.382;2022-09-30T18:56:55;15.70;1.00
21338;DHT22;10827;50.878;4.382;2022-09-30T18:59:20;15.80;1.00
21338;DHT22;10827;50.878;4.382;2022-09-30T19:01:47;15.90;1.00
21338;DHT22;10827;50.878;4.382;2022-09-30T19:04:14;16.00;1.00
21338;DHT22;10827;50.878;4.382;2022-09-30T19:06:42;15.80;1.00
21338;DHT22;10827;50.878;4.382;2022-09-30T19:11:35;16.00;1.00
21338;DHT22;10827;50.878;4.382;2022-09-30T19:16:31;15.90;1.00
21338;DHT22;10827;50.878;4.382;2022-09-30T19:19:00;15.70;1.00
21338;DHT22;10827;50.878;4.382;2022-09-30T19:21:29;15.60;1.00
21338;DHT22;10827;50.878;4.382;2022-09-30T19:23:57;15.60;1.00
21338;DHT22;10827;50.878;4.382;2022-09-30T19:26:24;15.50;1.00
21338;DHT22;10827;50.878;4.382;2022-09-30T19:28:52;15.60;1.00
21338;DHT22;10827;50.878;4.382;2022-09-30T19:31:19;15.80;1.00
21338;DHT22;10827;50.878;4.382;2022-09-30T19:33:50;15.50;1.00
21338;DHT22;10827;50.878;4.382;2022-09-30T19:36:16;15.70;1.00
21338;DHT22;10827;50.878;4.382;2022-09-30T19:38:44;15.70;1.00
21338;DHT22;10827;50.878;4.382;2022-09-30T19:41:11;15.90;1.00
21338;DHT22;10827;50.878;4.382;2022-09-30T19:43:37;15.70;1.00
21338;DHT22;10827;50.878;4.382;2022-09-30T19:46:06;15.90;1.00
21338;DHT22;10827;50.878;4.382;2022-09-30T19:48:34;15.70;1.00
21338;DHT22;10827;50.878;4.382;2022-09-30T19:53:30;15.60;1.00
21338;DHT22;10827;50.878;4.382;2022-09-30T19:56:03;15.60;1.00
21338;DHT22;10827;50.878;4.382;2022-09-30T19:58:30;15.70;1.00
21338;DHT22;10827;50.878;4.382;2022-09-30T20:03:23;15.80;1.00
21338;DHT22;10827;50.878;4.382;2022-09-30T20:06:01;15.60;1.00
21338;DHT22;10827;50.878;4.382;2022-09-30T20:08:32;15.70;1.00
21338;DHT22;10827;50.878;4.382;2022-09-30T20:11:12;15.50;1.00
21338;DHT22;10827;50.878;4.382;2022-09-30T20:13:39;15.70;1.00
21338;DHT22;10827;50.878;4.382;2022-09-30T20:16:08;15.50;1.00
21338;DHT22;10827;50.878;4.382;2022-09-30T20:21:05;15.60;1.00
21338;DHT22;10827;50.878;4.382;2022-09-30T20:23:34;15.50;1.00
21338;DHT22;10827;50.878;4.382;2022-09-30T20:26:07;15.50;1.00
21338;DHT22;10827;50.878;4.382;2022-09-30T20:28:34;15.30;1.00
21338;DHT22;10827;50.878;4.382;2022-09-30T20:31:11;15.60;1.00
21338;DHT22;10827;50.878;4.382;2022-09-30T20:36:06;15.60;1.00
21338;DHT22;10827;50.878;4.382;2022-09-30T20:38:32;15.60;1.00
21338;DHT22;10827;50.878;4.382;2022-09-30T20:41:00;15.30;1.00
21338;DHT22;10827;50.878;4.382;2022-09-30T20:43:27;15.10;1.00
21338;DHT22;10827;50.878;4.382;2022-09-30T20:46:02;15.30;1.00
21338;DHT22;10827;50.878;4.382;2022-09-30T20:48:38;15.40;1.00
21338;DHT22;10827;50.878;4.382;2022-09-30T20:51:09;15.30;1.00
21338;DHT22;10827;50.878;4.382;2022-09-30T20:53:36;15.00;1.00
21338;DHT22;10827;50.878;4.382;2022-09-30T20:56:05;15.10;1.00
21338;DHT22;10827;50.878;4.382;2022-09-30T21:01:05;15.10;1.00
21338;DHT22;10827;50.878;4.382;2022-09-30T21:03:33;15.10;1.00
21338;DHT22;10827;50.878;4.382;2022-09-30T21:06:01;15.20;1.00
21338;DHT22;10827;50.878;4.382;2022-09-30T21:10:53;15.10;1.00
21338;DHT22;10827;50.878;4.382;2022-09-30T21:13:19;15.10;1.00
21338;DHT22;10827;50.878;4.382;2022-09-30T21:18:11;14.80;1.00
21338;DHT22;10827;50.878;4.382;2022-09-30T21:25:30;14.30;11.60
21338;DHT22;10827;50.878;4.382;2022-09-30T21:37:41;13.80;51.30
21338;DHT22;10827;50.878;4.382;2022-09-30T21:40:09;13.70;52.30
21338;DHT22;10827;50.878;4.382;2022-09-30T21:42:35;13.80;53.00
21338;DHT22;10827;50.878;4.382;2022-09-30T21:45:02;13.40;65.20
21338;DHT22;10827;50.878;4.382;2022-09-30T21:49:54;13.20;97.00
21338;DHT22;10827;50.878;4.382;2022-09-30T21:54:48;13.20;99.90
21338;DHT22;10827;50.878;4.382;2022-09-30T21:57:17;13.30;99.90
21338;DHT22;10827;50.878;4.382;2022-09-30T21:59:43;13.00;99.90
21338;DHT22;10827;50.878;4.382;2022-09-30T22:02:09;13.00;99.90
21338;DHT22;10827;50.878;4.382;2022-09-30T22:04:36;12.80;99.90
21338;DHT22;10827;50.878;4.382;2022-09-30T22:07:04;12.80;99.90
21338;DHT22;10827;50.878;4.382;2022-09-30T22:09:31;12.50;99.90
21338;DHT22;10827;50.878;4.382;2022-09-30T22:19:20;12.70;99.90
21338;DHT22;10827;50.878;4.382;2022-09-30T22:21:46;12.70;99.90
21338;DHT22;10827;50.878;4.382;2022-09-30T22:24:12;12.90;99.90
21338;DHT22;10827;50.878;4.382;2022-09-30T22:26:39;12.60;99.90
21338;DHT22;10827;50.878;4.382;2022-09-30T22:29:10;12.50;99.90
21338;DHT22;10827;50.878;4.382;2022-09-30T22:31:36;12.40;99.90
21338;DHT22;10827;50.878;4.382;2022-09-30T22:34:05;12.40;99.90
21338;DHT22;10827;50.878;4.382;2022-09-30T22:42:01;12.30;99.90
21338;DHT22;10827;50.878;4.382;2022-09-30T22:44:31;12.20;99.90
21338;DHT22;10827;50.878;4.382;2022-09-30T22:49:28;12.30;99.90
21338;DHT22;10827;50.878;4.382;2022-09-30T22:51:57;12.40;99.90
21338;DHT22;10827;50.878;4.382;2022-09-30T22:54:24;12.30;99.90
21338;DHT22;10827;50.878;4.382;2022-09-30T22:59:18;12.20;99.90
21338;DHT22;10827;50.878;4.382;2022-09-30T23:01:45;12.20;99.90
21338;DHT22;10827;50.878;4.382;2022-09-30T23:04:11;12.40;99.90
21338;DHT22;10827;50.878;4.382;2022-09-30T23:09:08;12.20;99.90
21338;DHT22;10827;50.878;4.382;2022-09-30T23:11:34;12.10;99.90
21338;DHT22;10827;50.878;4.382;2022-09-30T23:14:01;12.10;99.90
21338;DHT22;10827;50.878;4.382;2022-09-30T23:23:47;12.20;99.90
21338;DHT22;10827;50.878;4.382;2022-09-30T23:31:14;12.00;99.90
21338;DHT22;10827;50.878;4.382;2022-09-30T23:33:45;12.10;99.90